sensor_id;sensor_type;location;lat;lon;timestamp;temperature;humidity
28071;DHT22;15383;48.408;9.968;2023-05-10T00:13:44;15.80;99.00
28071;DHT22;15383;48.408;9.968;2023-05-10T00:27:42;15.80;99.00
28071;DHT22;15383;48.408;9.968;2023-05-10T00:31:06;15.70;99.00
28071;DHT22;15383;48.408;9.968;2023-05-10T02:10:16;15.60;99.10
28071;DHT22;15383;48.408;9.968;2023-05-10T02:12:52;15.60;99.20
28071;DHT22;15383;48.408;9.968;2023-05-10T02:15:42;15.60;99.10
28071;DHT22;15383;48.408;9.968;2023-05-10T02:32:54;15.60;99.20
28071;DHT22;15383;48.408;9.968;2023-05-10T02:36:15;15.60;99.10
28071;DHT22;15383;48.408;9.968;2023-05-10T02:43:12;15.60;99.00
28071;DHT22;15383;48.408;9.968;2023-05-10T02:57:29;15.60;99.00
28071;DHT22;15383;48.408;9.968;2023-05-10T03:00:10;15.60;99.00
28071;DHT22;15383;48.408;9.968;2023-05-10T03:02:47;15.60;99.00
28071;DHT22;15383;48.408;9.968;2023-05-10T03:08:53;15.60;98.90
28071;DHT22;15383;48.408;9.968;2023-05-10T03:17:31;15.50;98.90
28071;DHT22;15383;48.408;9.968;2023-05-10T03:20:53;15.60;98.90
28071;DHT22;15383;48.408;9.968;2023-05-10T03:23:58;15.50;98.90
28071;DHT22;15383;48.408;9.968;2023-05-10T03:27:02;15.50;98.90
28071;DHT22;15383;48.408;9.968;2023-05-10T03:29:55;15.50;98.90
28071;DHT22;15383;48.408;9.968;2023-05-10T03:33:06;15.50;98.90
28071;DHT22;15383;48.408;9.968;2023-05-10T03:35:42;15.50;98.80
28071;DHT22;15383;48.408;9.968;2023-05-10T03:38:30;15.60;98.90
28071;DHT22;15383;48.408;9.968;2023-05-10T03:41:22;15.60;98.90
28071;DHT22;15383;48.408;9.968;2023-05-10T03:44:23;15.50;98.80
28071;DHT22;15383;48.408;9.968;2023-05-10T03:47:24;15.60;98.90
28071;DHT22;15383;48.408;9.968;2023-05-10T03:50:51;15.50;98.90
28071;DHT22;15383;48.408;9.968;2023-05-10T03:54:06;15.50;98.80
28071;DHT22;15383;48.408;9.968;2023-05-10T03:57:02;15.50;98.80
28071;DHT22;15383;48.408;9.968;2023-05-10T04:00:08;15.50;98.80
28071;DHT22;15383;48.408;9.968;2023-05-10T04:06:05;15.40;98.80
28071;DHT22;15383;48.408;9.968;2023-05-10T04:08:48;15.50;98.80
28071;DHT22;15383;48.408;9.968;2023-05-10T04:11:53;15.50;98.80
28071;DHT22;15383;48.408;9.968;2023-05-10T04:14:42;15.50;98.80
28071;DHT22;15383;48.408;9.968;2023-05-10T04:17:26;15.40;98.80
28071;DHT22;15383;48.408;9.968;2023-05-10T04:20:20;15.50;98.80
28071;DHT22;15383;48.408;9.968;2023-05-10T04:23:05;15.50;98.80
28071;DHT22;15383;48.408;9.968;2023-05-10T04:28:57;15.50;98.80
28071;DHT22;15383;48.408;9.968;2023-05-10T04:31:25;15.50;98.80
28071;DHT22;15383;48.408;9.968;2023-05-10T04:34:02;15.50;98.80
28071;DHT22;15383;48.408;9.968;2023-05-10T04:36:50;15.50;98.80
28071;DHT22;15383;48.408;9.968;2023-05-10T04:40:05;15.50;98.80
28071;DHT22;15383;48.408;9.968;2023-05-10T04:43:00;15.70;98.80
28071;DHT22;15383;48.408;9.968;2023-05-10T04:46:09;15.40;98.70
28071;DHT22;15383;48.408;9.968;2023-05-10T04:48:37;15.40;98.70
28071;DHT22;15383;48.408;9.968;2023-05-10T04:51:29;15.40;98.70
28071;DHT22;15383;48.408;9.968;2023-05-10T04:54:20;15.40;98.70
28071;DHT22;15383;48.408;9.968;2023-05-10T04:57:10;15.40;98.70
28071;DHT22;15383;48.408;9.968;2023-05-10T04:59:56;15.40;98.70
28071;DHT22;15383;48.408;9.968;2023-05-10T05:02:22;15.40;98.70
28071;DHT22;15383;48.408;9.968;2023-05-10T05:05:02;15.40;98.70
28071;DHT22;15383;48.408;9.968;2023-05-10T05:07:42;15.40;98.70
28071;DHT22;15383;48.408;9.968;2023-05-10T05:10:28;15.40;98.70
28071;DHT22;15383;48.408;9.968;2023-05-10T05:13:02;15.50;98.70
28071;DHT22;15383;48.408;9.968;2023-05-10T05:15:32;15.40;98.70
28071;DHT22;15383;48.408;9.968;2023-05-10T05:18:46;15.40;98.70
28071;DHT22;15383;48.408;9.968;2023-05-10T05:21:16;15.40;98.70
28071;DHT22;15383;48.408;9.968;2023-05-10T05:24:10;15.40;98.70
28071;DHT22;15383;48.408;9.968;2023-05-10T05:26:44;15.40;98.70
28071;DHT22;15383;48.408;9.968;2023-05-10T05:29:47;15.40;98.70
28071;DHT22;15383;48.408;9.968;2023-05-10T05:32:56;15.40;98.70
28071;DHT22;15383;48.408;9.968;2023-05-10T05:35:38;15.40;98.70
28071;DHT22;15383;48.408;9.968;2023-05-10T05:38:44;15.40;98.70
28071;DHT22;15383;48.408;9.968;2023-05-10T05:41:10;15.40;98.70
28071;DHT22;15383;48.408;9.968;2023-05-10T05:44:16;15.40;98.70
28071;DHT22;15383;48.408;9.968;2023-05-10T05:47:03;15.40;98.60
28071;DHT22;15383;48.408;9.968;2023-05-10T05:49:51;15.40;98.70
28071;DHT22;15383;48.408;9.968;2023-05-10T05:52:58;15.40;98.60
28071;DHT22;15383;48.408;9.968;2023-05-10T05:55:29;15.40;98.60
28071;DHT22;15383;48.408;9.968;2023-05-10T05:58:17;15.40;98.70
28071;DHT22;15383;48.408;9.968;2023-05-10T06:00:48;15.40;98.70
28071;DHT22;15383;48.408;9.968;2023-05-10T06:03:33;15.40;98.60
28071;DHT22;15383;48.408;9.968;2023-05-10T06:06:23;15.40;98.60
28071;DHT22;15383;48.408;9.968;2023-05-10T06:08:49;15.40;98.70
28071;DHT22;15383;48.408;9.968;2023-05-10T06:11:35;15.40;98.70
28071;DHT22;15383;48.408;9.968;2023-05-10T06:14:51;15.40;98.60
28071;DHT22;15383;48.408;9.968;2023-05-10T06:17:20;15.40;98.60
28071;DHT22;15383;48.408;9.968;2023-05-10T06:20:11;15.50;98.70
28071;DHT22;15383;48.408;9.968;2023-05-10T06:23:02;15.40;98.70
28071;DHT22;15383;48.408;9.968;2023-05-10T06:25:29;15.40;98.60
28071;DHT22;15383;48.408;9.968;2023-05-10T06:27:55;15.40;98.70
28071;DHT22;15383;48.408;9.968;2023-05-10T06:30:24;15.40;98.70
28071;DHT22;15383;48.408;9.968;2023-05-10T06:32:54;15.40;98.60
28071;DHT22;15383;48.408;9.968;2023-05-10T06:35:21;15.40;98.70
28071;DHT22;15383;48.408;9.968;2023-05-10T06:37:47;15.50;98.70
28071;DHT22;15383;48.408;9.968;2023-05-10T06:40:13;15.40;98.60
28071;DHT22;15383;48.408;9.968;2023-05-10T06:42:39;15.40;98.70
28071;DHT22;15383;48.408;9.968;2023-05-10T06:45:06;15.40;98.70
28071;DHT22;15383;48.408;9.968;2023-05-10T06:47:31;15.40;98.70
28071;DHT22;15383;48.408;9.968;2023-05-10T06:49:57;15.50;98.70
28071;DHT22;15383;48.408;9.968;2023-05-10T06:52:23;15.50;98.70
28071;DHT22;15383;48.408;9.968;2023-05-10T07:00:19;15.50;98.70
28071;DHT22;15383;48.408;9.968;2023-05-10T07:03:31;15.50;98.80
28071;DHT22;15383;48.408;9.968;2023-05-10T07:06:04;15.40;98.90
28071;DHT22;15383;48.408;9.968;2023-05-10T07:09:02;15.40;99.00
28071;DHT22;15383;48.408;9.968;2023-05-10T07:11:29;15.40;98.90
28071;DHT22;15383;48.408;9.968;2023-05-10T07:13:58;15.40;98.90
28071;DHT22;15383;48.408;9.968;2023-05-10T07:16:41;15.40;98.90
28071;DHT22;15383;48.408;9.968;2023-05-10T07:19:30;15.30;98.80
28071;DHT22;15383;48.408;9.968;2023-05-10T07:22:04;15.30;98.90
28071;DHT22;15383;48.408;9.968;2023-05-10T07:24:34;15.40;98.90
28071;DHT22;15383;48.408;9.968;2023-05-10T07:27:05;15.30;98.90
28071;DHT22;15383;48.408;9.968;2023-05-10T07:29:41;15.40;98.90
28071;DHT22;15383;48.408;9.968;2023-05-10T07:32:07;15.30;99.10
28071;DHT22;15383;48.408;9.968;2023-05-10T07:34:33;15.30;98.80
28071;DHT22;15383;48.408;9.968;2023-05-10T07:37:21;15.30;98.80
28071;DHT22;15383;48.408;9.968;2023-05-10T07:39:55;15.40;98.90
28071;DHT22;15383;48.408;9.968;2023-05-10T07:42:21;15.30;98.70
28071;DHT22;15383;48.408;9.968;2023-05-10T07:44:47;15.30;98.70
28071;DHT22;15383;48.408;9.968;2023-05-10T07:47:13;15.30;98.60
28071;DHT22;15383;48.408;9.968;2023-05-10T07:49:38;15.30;98.60
28071;DHT22;15383;48.408;9.968;2023-05-10T07:52:04;15.40;98.60
28071;DHT22;15383;48.408;9.968;2023-05-10T07:54:30;15.30;98.60
28071;DHT22;15383;48.408;9.968;2023-05-10T07:56:55;15.30;98.70
28071;DHT22;15383;48.408;9.968;2023-05-10T07:59:21;15.30;98.60
28071;DHT22;15383;48.408;9.968;2023-05-10T08:01:47;15.30;98.70
28071;DHT22;15383;48.408;9.968;2023-05-10T08:04:12;15.30;98.60
28071;DHT22;15383;48.408;9.968;2023-05-10T08:06:39;15.30;98.60
28071;DHT22;15383;48.408;9.968;2023-05-10T08:09:05;15.30;98.90
28071;DHT22;15383;48.408;9.968;2023-05-10T08:11:30;15.30;98.50
28071;DHT22;15383;48.408;9.968;2023-05-10T08:13:56;15.30;98.50
28071;DHT22;15383;48.408;9.968;2023-05-10T08:16:22;15.30;98.50
28071;DHT22;15383;48.408;9.968;2023-05-10T08:18:49;15.30;98.60
28071;DHT22;15383;48.408;9.968;2023-05-10T08:21:16;15.30;98.60
28071;DHT22;15383;48.408;9.968;2023-05-10T08:23:42;15.30;98.60
28071;DHT22;15383;48.408;9.968;2023-05-10T08:26:09;15.30;98.50
28071;DHT22;15383;48.408;9.968;2023-05-10T08:28:34;15.30;98.40
28071;DHT22;15383;48.408;9.968;2023-05-10T08:31:00;15.40;98.30
28071;DHT22;15383;48.408;9.968;2023-05-10T08:33:26;15.40;98.30
28071;DHT22;15383;48.408;9.968;2023-05-10T08:35:51;15.40;98.10
28071;DHT22;15383;48.408;9.968;2023-05-10T08:38:18;15.40;98.10
28071;DHT22;15383;48.408;9.968;2023-05-10T08:40:44;15.40;98.00
28071;DHT22;15383;48.408;9.968;2023-05-10T08:43:12;15.40;97.80
28071;DHT22;15383;48.408;9.968;2023-05-10T08:45:41;15.50;97.80
28071;DHT22;15383;48.408;9.968;2023-05-10T08:48:09;15.40;97.70
28071;DHT22;15383;48.408;9.968;2023-05-10T08:50:39;15.50;97.60
28071;DHT22;15383;48.408;9.968;2023-05-10T08:53:12;15.50;97.60
28071;DHT22;15383;48.408;9.968;2023-05-10T08:55:38;15.50;97.50
28071;DHT22;15383;48.408;9.968;2023-05-10T08:58:06;15.40;97.60
28071;DHT22;15383;48.408;9.968;2023-05-10T09:00:32;15.40;97.50
28071;DHT22;15383;48.408;9.968;2023-05-10T09:02:59;15.50;97.50
28071;DHT22;15383;48.408;9.968;2023-05-10T09:05:25;15.50;97.40
28071;DHT22;15383;48.408;9.968;2023-05-10T09:07:51;15.50;97.20
28071;DHT22;15383;48.408;9.968;2023-05-10T09:10:16;15.50;97.00
28071;DHT22;15383;48.408;9.968;2023-05-10T09:12:44;15.50;96.90
28071;DHT22;15383;48.408;9.968;2023-05-10T09:15:11;15.50;96.80
28071;DHT22;15383;48.408;9.968;2023-05-10T09:17:38;15.50;96.80
28071;DHT22;15383;48.408;9.968;2023-05-10T09:20:06;15.60;96.70
28071;DHT22;15383;48.408;9.968;2023-05-10T09:22:33;15.60;96.70
28071;DHT22;15383;48.408;9.968;2023-05-10T09:25:10;15.60;96.60
28071;DHT22;15383;48.408;9.968;2023-05-10T09:27:45;15.60;96.50
28071;DHT22;15383;48.408;9.968;2023-05-10T09:30:23;15.60;96.30
28071;DHT22;15383;48.408;9.968;2023-05-10T09:32:49;15.60;96.20
28071;DHT22;15383;48.408;9.968;2023-05-10T09:35:35;15.60;96.10
28071;DHT22;15383;48.408;9.968;2023-05-10T09:38:06;15.60;96.00
28071;DHT22;15383;48.408;9.968;2023-05-10T09:40:32;15.60;96.10
28071;DHT22;15383;48.408;9.968;2023-05-10T09:43:08;15.60;95.90
28071;DHT22;15383;48.408;9.968;2023-05-10T09:45:36;15.70;95.90
28071;DHT22;15383;48.408;9.968;2023-05-10T09:48:03;15.70;95.70
28071;DHT22;15383;48.408;9.968;2023-05-10T09:50:32;15.70;95.30
28071;DHT22;15383;48.408;9.968;2023-05-10T09:53:01;15.60;95.30
28071;DHT22;15383;48.408;9.968;2023-05-10T09:55:40;15.60;95.30
28071;DHT22;15383;48.408;9.968;2023-05-10T09:58:07;15.70;95.20
28071;DHT22;15383;48.408;9.968;2023-05-10T10:00:57;15.70;95.10
28071;DHT22;15383;48.408;9.968;2023-05-10T10:03:23;15.70;95.00
28071;DHT22;15383;48.408;9.968;2023-05-10T10:05:57;15.70;95.10
28071;DHT22;15383;48.408;9.968;2023-05-10T10:08:24;15.70;95.10
28071;DHT22;15383;48.408;9.968;2023-05-10T10:10:50;15.70;94.70
28071;DHT22;15383;48.408;9.968;2023-05-10T10:13:16;15.70;94.70
28071;DHT22;15383;48.408;9.968;2023-05-10T10:15:45;15.70;94.60
28071;DHT22;15383;48.408;9.968;2023-05-10T10:18:17;15.70;94.60
28071;DHT22;15383;48.408;9.968;2023-05-10T10:20:48;15.70;94.60
28071;DHT22;15383;48.408;9.968;2023-05-10T10:23:19;15.70;94.50
28071;DHT22;15383;48.408;9.968;2023-05-10T10:25:54;15.80;94.60
28071;DHT22;15383;48.408;9.968;2023-05-10T10:32:12;15.80;94.40
28071;DHT22;15383;48.408;9.968;2023-05-10T10:35:02;15.80;94.00
28071;DHT22;15383;48.408;9.968;2023-05-10T10:37:45;15.80;94.30
28071;DHT22;15383;48.408;9.968;2023-05-10T10:40:28;15.80;94.20
28071;DHT22;15383;48.408;9.968;2023-05-10T10:42:55;15.80;94.00
28071;DHT22;15383;48.408;9.968;2023-05-10T10:45:22;15.80;94.00
28071;DHT22;15383;48.408;9.968;2023-05-10T10:47:48;15.80;94.10
28071;DHT22;15383;48.408;9.968;2023-05-10T10:50:15;15.80;94.10
28071;DHT22;15383;48.408;9.968;2023-05-10T10:52:44;15.80;93.90
28071;DHT22;15383;48.408;9.968;2023-05-10T10:55:20;15.90;93.90
28071;DHT22;15383;48.408;9.968;2023-05-10T10:57:53;15.90;94.00
28071;DHT22;15383;48.408;9.968;2023-05-10T11:00:33;15.80;94.00
28071;DHT22;15383;48.408;9.968;2023-05-10T11:05:45;15.80;94.10
28071;DHT22;15383;48.408;9.968;2023-05-10T11:08:16;15.80;94.10
28071;DHT22;15383;48.408;9.968;2023-05-10T11:13:45;15.90;93.90
28071;DHT22;15383;48.408;9.968;2023-05-10T11:18:41;15.80;93.80
28071;DHT22;15383;48.408;9.968;2023-05-10T11:21:16;15.80;93.90
28071;DHT22;15383;48.408;9.968;2023-05-10T11:23:58;15.80;93.80
28071;DHT22;15383;48.408;9.968;2023-05-10T11:26:25;15.80;93.60
28071;DHT22;15383;48.408;9.968;2023-05-10T11:28:53;15.80;93.50
28071;DHT22;15383;48.408;9.968;2023-05-10T11:31:24;15.80;93.70
28071;DHT22;15383;48.408;9.968;2023-05-10T11:33:56;15.80;93.60
28071;DHT22;15383;48.408;9.968;2023-05-10T11:36:32;15.80;93.50
28071;DHT22;15383;48.408;9.968;2023-05-10T11:38:58;15.80;93.60
28071;DHT22;15383;48.408;9.968;2023-05-10T11:41:24;15.80;93.70
28071;DHT22;15383;48.408;9.968;2023-05-10T11:43:52;15.80;94.10
28071;DHT22;15383;48.408;9.968;2023-05-10T11:46:23;15.80;93.70
28071;DHT22;15383;48.408;9.968;2023-05-10T11:48:53;15.80;93.70
28071;DHT22;15383;48.408;9.968;2023-05-10T11:51:21;15.80;94.00
28071;DHT22;15383;48.408;9.968;2023-05-10T11:53:46;15.80;93.80
28071;DHT22;15383;48.408;9.968;2023-05-10T11:56:12;15.80;93.70
28071;DHT22;15383;48.408;9.968;2023-05-10T11:58:39;15.80;93.70
28071;DHT22;15383;48.408;9.968;2023-05-10T12:01:06;15.80;93.70
28071;DHT22;15383;48.408;9.968;2023-05-10T12:03:33;15.80;93.60
28071;DHT22;15383;48.408;9.968;2023-05-10T12:06:00;15.80;93.70
28071;DHT22;15383;48.408;9.968;2023-05-10T12:08:28;15.80;94.20
28071;DHT22;15383;48.408;9.968;2023-05-10T12:11:03;15.70;94.20
28071;DHT22;15383;48.408;9.968;2023-05-10T12:13:29;15.70;94.40
28071;DHT22;15383;48.408;9.968;2023-05-10T12:15:58;15.70;94.60
28071;DHT22;15383;48.408;9.968;2023-05-10T12:18:24;15.70;94.70
28071;DHT22;15383;48.408;9.968;2023-05-10T12:20:53;15.70;94.60
28071;DHT22;15383;48.408;9.968;2023-05-10T12:23:20;15.70;94.50
28071;DHT22;15383;48.408;9.968;2023-05-10T12:25:46;15.60;94.50
28071;DHT22;15383;48.408;9.968;2023-05-10T12:28:12;15.60;94.50
28071;DHT22;15383;48.408;9.968;2023-05-10T12:30:38;15.60;94.50
28071;DHT22;15383;48.408;9.968;2023-05-10T12:35:33;15.60;94.60
28071;DHT22;15383;48.408;9.968;2023-05-10T12:37:59;15.60;94.80
28071;DHT22;15383;48.408;9.968;2023-05-10T12:40:25;15.60;94.80
28071;DHT22;15383;48.408;9.968;2023-05-10T12:42:50;15.60;95.20
28071;DHT22;15383;48.408;9.968;2023-05-10T12:45:17;15.70;95.10
28071;DHT22;15383;48.408;9.968;2023-05-10T12:47:43;15.60;95.10
28071;DHT22;15383;48.408;9.968;2023-05-10T12:50:09;15.60;95.30
28071;DHT22;15383;48.408;9.968;2023-05-10T12:52:35;15.60;95.50
28071;DHT22;15383;48.408;9.968;2023-05-10T12:55:00;15.60;95.60
28071;DHT22;15383;48.408;9.968;2023-05-10T12:57:27;15.60;95.60
28071;DHT22;15383;48.408;9.968;2023-05-10T12:59:53;15.60;95.60
28071;DHT22;15383;48.408;9.968;2023-05-10T13:02:19;15.60;95.60
28071;DHT22;15383;48.408;9.968;2023-05-10T13:04:45;15.60;95.60
28071;DHT22;15383;48.408;9.968;2023-05-10T13:07:11;15.60;95.60
28071;DHT22;15383;48.408;9.968;2023-05-10T13:09:37;15.60;95.70
28071;DHT22;15383;48.408;9.968;2023-05-10T13:12:03;15.60;95.90
28071;DHT22;15383;48.408;9.968;2023-05-10T13:14:29;15.60;96.00
28071;DHT22;15383;48.408;9.968;2023-05-10T13:16:55;15.60;95.90
28071;DHT22;15383;48.408;9.968;2023-05-10T13:19:20;15.60;95.90
28071;DHT22;15383;48.408;9.968;2023-05-10T13:21:46;15.50;95.70
28071;DHT22;15383;48.408;9.968;2023-05-10T13:24:12;15.60;95.80
28071;DHT22;15383;48.408;9.968;2023-05-10T13:26:40;15.50;95.70
28071;DHT22;15383;48.408;9.968;2023-05-10T13:29:06;15.50;95.70
28071;DHT22;15383;48.408;9.968;2023-05-10T13:31:35;15.60;95.70
28071;DHT22;15383;48.408;9.968;2023-05-10T13:34:01;15.60;95.60
28071;DHT22;15383;48.408;9.968;2023-05-10T13:36:27;15.60;95.70
28071;DHT22;15383;48.408;9.968;2023-05-10T13:38:53;15.60;95.70
28071;DHT22;15383;48.408;9.968;2023-05-10T13:41:19;15.50;95.70
28071;DHT22;15383;48.408;9.968;2023-05-10T13:43:44;15.50;96.10
28071;DHT22;15383;48.408;9.968;2023-05-10T13:46:10;15.50;95.60
28071;DHT22;15383;48.408;9.968;2023-05-10T13:48:35;15.50;95.60
28071;DHT22;15383;48.408;9.968;2023-05-10T13:51:02;15.50;95.60
28071;DHT22;15383;48.408;9.968;2023-05-10T13:53:28;15.50;95.60
28071;DHT22;15383;48.408;9.968;2023-05-10T13:55:54;15.50;95.60
28071;DHT22;15383;48.408;9.968;2023-05-10T13:58:19;15.50;95.60
28071;DHT22;15383;48.408;9.968;2023-05-10T14:00:45;15.50;95.50
28071;DHT22;15383;48.408;9.968;2023-05-10T14:03:10;15.50;95.50
28071;DHT22;15383;48.408;9.968;2023-05-10T14:05:36;15.40;95.40
28071;DHT22;15383;48.408;9.968;2023-05-10T14:08:02;15.40;95.40
28071;DHT22;15383;48.408;9.968;2023-05-10T14:10:28;15.40;95.60
28071;DHT22;15383;48.408;9.968;2023-05-10T14:12:53;15.40;95.70
28071;DHT22;15383;48.408;9.968;2023-05-10T14:15:19;15.40;95.70
28071;DHT22;15383;48.408;9.968;2023-05-10T14:17:44;15.40;95.80
28071;DHT22;15383;48.408;9.968;2023-05-10T14:20:10;15.40;95.80
28071;DHT22;15383;48.408;9.968;2023-05-10T14:22:36;15.40;95.80
28071;DHT22;15383;48.408;9.968;2023-05-10T14:25:02;15.40;95.90
28071;DHT22;15383;48.408;9.968;2023-05-10T14:27:28;15.30;95.80
28071;DHT22;15383;48.408;9.968;2023-05-10T14:29:53;15.30;95.90
28071;DHT22;15383;48.408;9.968;2023-05-10T14:32:19;15.40;95.90
28071;DHT22;15383;48.408;9.968;2023-05-10T14:34:45;15.40;95.90
28071;DHT22;15383;48.408;9.968;2023-05-10T14:37:11;15.30;96.10
28071;DHT22;15383;48.408;9.968;2023-05-10T14:39:37;15.30;96.30
28071;DHT22;15383;48.408;9.968;2023-05-10T14:42:03;15.30;96.30
28071;DHT22;15383;48.408;9.968;2023-05-10T14:44:29;15.30;96.20
28071;DHT22;15383;48.408;9.968;2023-05-10T14:46:54;15.30;96.20
28071;DHT22;15383;48.408;9.968;2023-05-10T14:49:21;16.20;96.50
28071;DHT22;15383;48.408;9.968;2023-05-10T14:51:48;15.40;96.20
28071;DHT22;15383;48.408;9.968;2023-05-10T14:54:13;15.30;96.00
28071;DHT22;15383;48.408;9.968;2023-05-10T14:56:39;15.30;96.00
28071;DHT22;15383;48.408;9.968;2023-05-10T14:59:07;15.30;96.00
28071;DHT22;15383;48.408;9.968;2023-05-10T15:01:32;15.30;96.00
28071;DHT22;15383;48.408;9.968;2023-05-10T15:03:59;15.30;96.10
28071;DHT22;15383;48.408;9.968;2023-05-10T15:06:31;15.30;96.10
28071;DHT22;15383;48.408;9.968;2023-05-10T15:12:45;15.30;95.90
28071;DHT22;15383;48.408;9.968;2023-05-10T15:56:03;15.30;96.20
28071;DHT22;15383;48.408;9.968;2023-05-10T15:58:30;15.30;96.40
28071;DHT22;15383;48.408;9.968;2023-05-10T16:00:56;15.30;96.40
28071;DHT22;15383;48.408;9.968;2023-05-10T16:03:22;15.30;96.50
28071;DHT22;15383;48.408;9.968;2023-05-10T16:05:48;15.30;96.40
28071;DHT22;15383;48.408;9.968;2023-05-10T16:08:13;15.20;96.40
28071;DHT22;15383;48.408;9.968;2023-05-10T16:10:39;15.20;96.40
28071;DHT22;15383;48.408;9.968;2023-05-10T16:13:05;15.20;96.60
28071;DHT22;15383;48.408;9.968;2023-05-10T16:15:30;15.20;96.60
28071;DHT22;15383;48.408;9.968;2023-05-10T16:17:56;15.20;96.60
28071;DHT22;15383;48.408;9.968;2023-05-10T16:20:22;15.20;96.50
28071;DHT22;15383;48.408;9.968;2023-05-10T16:22:52;15.30;96.60
28071;DHT22;15383;48.408;9.968;2023-05-10T16:25:18;15.20;96.60
28071;DHT22;15383;48.408;9.968;2023-05-10T16:27:44;15.60;96.80
28071;DHT22;15383;48.408;9.968;2023-05-10T16:30:09;15.30;96.60
28071;DHT22;15383;48.408;9.968;2023-05-10T16:32:35;15.20;96.60
28071;DHT22;15383;48.408;9.968;2023-05-10T16:35:01;15.30;96.60
28071;DHT22;15383;48.408;9.968;2023-05-10T16:37:26;15.30;96.60
28071;DHT22;15383;48.408;9.968;2023-05-10T16:39:52;15.30;96.60
28071;DHT22;15383;48.408;9.968;2023-05-10T16:42:18;15.30;96.60
28071;DHT22;15383;48.408;9.968;2023-05-10T16:44:43;15.30;96.60
28071;DHT22;15383;48.408;9.968;2023-05-10T16:47:10;15.00;96.50
28071;DHT22;15383;48.408;9.968;2023-05-10T16:49:35;15.30;96.60
28071;DHT22;15383;48.408;9.968;2023-05-10T16:52:01;15.30;96.60
28071;DHT22;15383;48.408;9.968;2023-05-10T16:54:30;15.30;96.60
28071;DHT22;15383;48.408;9.968;2023-05-10T16:56:56;15.30;96.60
28071;DHT22;15383;48.408;9.968;2023-05-10T16:59:22;15.30;96.60
28071;DHT22;15383;48.408;9.968;2023-05-10T17:01:47;15.30;96.60
28071;DHT22;15383;48.408;9.968;2023-05-10T17:04:14;15.30;96.60
28071;DHT22;15383;48.408;9.968;2023-05-10T17:07:00;15.30;96.60
28071;DHT22;15383;48.408;9.968;2023-05-10T17:09:25;15.30;96.60
28071;DHT22;15383;48.408;9.968;2023-05-10T17:11:51;15.30;96.60
28071;DHT22;15383;48.408;9.968;2023-05-10T17:14:16;15.30;96.70
28071;DHT22;15383;48.408;9.968;2023-05-10T17:16:42;15.30;96.60
28071;DHT22;15383;48.408;9.968;2023-05-10T17:19:08;15.30;96.70
28071;DHT22;15383;48.408;9.968;2023-05-10T17:21:33;15.30;96.70
28071;DHT22;15383;48.408;9.968;2023-05-10T17:23:59;15.30;96.70
28071;DHT22;15383;48.408;9.968;2023-05-10T17:26:24;15.30;96.70
28071;DHT22;15383;48.408;9.968;2023-05-10T17:28:52;15.30;96.70
28071;DHT22;15383;48.408;9.968;2023-05-10T17:31:18;15.20;96.70
28071;DHT22;15383;48.408;9.968;2023-05-10T17:33:44;15.30;96.70
28071;DHT22;15383;48.408;9.968;2023-05-10T17:36:09;15.30;96.80
28071;DHT22;15383;48.408;9.968;2023-05-10T17:38:35;15.30;96.80
28071;DHT22;15383;48.408;9.968;2023-05-10T17:41:00;15.20;96.70
28071;DHT22;15383;48.408;9.968;2023-05-10T17:43:26;15.60;96.90
28071;DHT22;15383;48.408;9.968;2023-05-10T17:45:52;15.40;96.80
28071;DHT22;15383;48.408;9.968;2023-05-10T17:48:17;15.30;96.80
28071;DHT22;15383;48.408;9.968;2023-05-10T17:50:43;15.20;96.70
28071;DHT22;15383;48.408;9.968;2023-05-10T17:53:09;15.20;96.80
28071;DHT22;15383;48.408;9.968;2023-05-10T17:55:34;15.20;96.80
28071;DHT22;15383;48.408;9.968;2023-05-10T17:58:00;15.20;96.80
28071;DHT22;15383;48.408;9.968;2023-05-10T18:00:26;15.20;96.80
28071;DHT22;15383;48.408;9.968;2023-05-10T18:02:52;15.20;96.80
28071;DHT22;15383;48.408;9.968;2023-05-10T18:05:17;15.30;96.80
28071;DHT22;15383;48.408;9.968;2023-05-10T18:07:43;15.20;96.80
28071;DHT22;15383;48.408;9.968;2023-05-10T18:10:18;15.20;96.80
28071;DHT22;15383;48.408;9.968;2023-05-10T18:12:52;15.20;96.90
28071;DHT22;15383;48.408;9.968;2023-05-10T18:15:18;15.20;96.90
28071;DHT22;15383;48.408;9.968;2023-05-10T18:17:46;15.20;96.90
28071;DHT22;15383;48.408;9.968;2023-05-10T18:20:16;15.20;96.90
28071;DHT22;15383;48.408;9.968;2023-05-10T18:22:41;15.20;96.90
28071;DHT22;15383;48.408;9.968;2023-05-10T18:25:08;15.20;96.90
28071;DHT22;15383;48.408;9.968;2023-05-10T18:27:54;15.30;96.90
28071;DHT22;15383;48.408;9.968;2023-05-10T18:30:20;15.20;96.90
28071;DHT22;15383;48.408;9.968;2023-05-10T18:32:46;15.20;96.90
28071;DHT22;15383;48.408;9.968;2023-05-10T18:35:12;15.20;96.90
28071;DHT22;15383;48.408;9.968;2023-05-10T18:37:38;15.20;96.90
28071;DHT22;15383;48.408;9.968;2023-05-10T18:40:04;15.20;96.90
28071;DHT22;15383;48.408;9.968;2023-05-10T18:42:41;15.20;96.90
28071;DHT22;15383;48.408;9.968;2023-05-10T18:45:07;15.10;96.90
28071;DHT22;15383;48.408;9.968;2023-05-10T18:47:36;15.20;97.00
28071;DHT22;15383;48.408;9.968;2023-05-10T18:50:02;15.20;97.00
28071;DHT22;15383;48.408;9.968;2023-05-10T18:52:31;15.20;97.00
28071;DHT22;15383;48.408;9.968;2023-05-10T18:55:06;15.20;97.00
28071;DHT22;15383;48.408;9.968;2023-05-10T18:57:35;15.20;97.00
28071;DHT22;15383;48.408;9.968;2023-05-10T19:00:09;15.20;97.00
28071;DHT22;15383;48.408;9.968;2023-05-10T19:02:38;15.20;97.00
28071;DHT22;15383;48.408;9.968;2023-05-10T19:05:04;15.20;97.00
28071;DHT22;15383;48.408;9.968;2023-05-10T19:07:30;15.10;97.00
28071;DHT22;15383;48.408;9.968;2023-05-10T19:09:55;15.10;97.00
28071;DHT22;15383;48.408;9.968;2023-05-10T19:12:21;15.10;97.00
28071;DHT22;15383;48.408;9.968;2023-05-10T19:14:47;15.10;97.00
28071;DHT22;15383;48.408;9.968;2023-05-10T19:17:12;15.20;97.10
28071;DHT22;15383;48.408;9.968;2023-05-10T19:19:41;15.10;97.00
28071;DHT22;15383;48.408;9.968;2023-05-10T19:25:08;15.10;97.00
28071;DHT22;15383;48.408;9.968;2023-05-10T19:27:41;15.10;97.00
28071;DHT22;15383;48.408;9.968;2023-05-10T19:30:10;15.10;97.00
28071;DHT22;15383;48.408;9.968;2023-05-10T19:32:42;15.10;97.00
28071;DHT22;15383;48.408;9.968;2023-05-10T19:35:08;15.10;97.00
28071;DHT22;15383;48.408;9.968;2023-05-10T19:37:47;15.10;97.00
28071;DHT22;15383;48.408;9.968;2023-05-10T19:40:14;15.10;97.00
28071;DHT22;15383;48.408;9.968;2023-05-10T19:42:41;15.10;97.00
28071;DHT22;15383;48.408;9.968;2023-05-10T19:45:13;15.10;97.00
28071;DHT22;15383;48.408;9.968;2023-05-10T19:47:39;15.10;97.00
28071;DHT22;15383;48.408;9.968;2023-05-10T19:50:06;15.10;97.00
28071;DHT22;15383;48.408;9.968;2023-05-10T19:52:33;15.10;97.00
28071;DHT22;15383;48.408;9.968;2023-05-10T19:54:58;15.10;97.00
28071;DHT22;15383;48.408;9.968;2023-05-10T19:57:26;15.10;97.00